sensor_id;sensor_type;location;lat;lon;timestamp;pressure;altitude;pressure_sealevel;temperature;humidity
22688;BME280;11511;51.514;7.080;2023-08-20T00:02:01;101670.00;;;16.56;100.00
22688;BME280;11511;51.514;7.080;2023-08-20T00:07:45;101666.50;;;16.55;100.00
22688;BME280;11511;51.514;7.080;2023-08-20T00:10:11;101667.34;;;16.56;100.00
22688;BME280;11511;51.514;7.080;2023-08-20T00:16:00;101677.41;;;16.49;100.00
22688;BME280;11511;51.514;7.080;2023-08-20T00:18:26;101680.84;;;16.51;100.00
22688;BME280;11511;51.514;7.080;2023-08-20T00:20:53;101673.81;;;16.50;100.00
22688;BME280;11511;51.514;7.080;2023-08-20T00:23:23;101679.31;;;16.46;100.00
22688;BME280;11511;51.514;7.080;2023-08-20T00:25:53;101682.91;;;16.45;100.00
22688;BME280;11511;51.514;7.080;2023-08-20T00:28:20;101676.09;;;16.39;100.00
22688;BME280;11511;51.514;7.080;2023-08-20T00:30:46;101672.34;;;16.43;100.00
22688;BME280;11511;51.514;7.080;2023-08-20T00:33:14;101674.31;;;16.40;100.00
22688;BME280;11511;51.514;7.080;2023-08-20T00:35:48;101667.25;;;16.39;100.00
22688;BME280;11511;51.514;7.080;2023-08-20T00:38:14;101666.31;;;16.40;100.00
22688;BME280;11511;51.514;7.080;2023-08-20T00:40:40;101666.66;;;16.32;100.00
22688;BME280;11511;51.514;7.080;2023-08-20T00:43:09;101659.00;;;16.24;100.00
22688;BME280;11511;51.514;7.080;2023-08-20T00:45:36;101666.03;;;16.25;100.00
22688;BME280;11511;51.514;7.080;2023-08-20T00:48:07;101678.47;;;16.25;100.00
22688;BME280;11511;51.514;7.080;2023-08-20T00:50:33;101680.38;;;16.21;100.00
22688;BME280;11511;51.514;7.080;2023-08-20T00:53:01;101675.00;;;16.23;100.00
22688;BME280;11511;51.514;7.080;2023-08-20T00:55:31;101671.03;;;16.33;100.00
22688;BME280;11511;51.514;7.080;2023-08-20T00:57:57;101664.00;;;16.32;100.00
22688;BME280;11511;51.514;7.080;2023-08-20T01:03:45;101663.50;;;16.22;100.00
22688;BME280;11511;51.514;7.080;2023-08-20T01:09:15;101666.44;;;16.16;100.00
22688;BME280;11511;51.514;7.080;2023-08-20T01:11:48;101671.75;;;16.16;100.00
22688;BME280;11511;51.514;7.080;2023-08-20T19:07:25;101652.75;;;21.74;100.00
22688;BME280;11511;51.514;7.080;2023-08-20T19:09:56;101656.25;;;21.62;100.00
22688;BME280;11511;51.514;7.080;2023-08-20T19:12:22;101657.94;;;21.50;100.00
22688;BME280;11511;51.514;7.080;2023-08-20T19:14:50;101663.22;;;21.38;100.00
22688;BME280;11511;51.514;7.080;2023-08-20T19:17:38;101665.84;;;21.25;100.00
22688;BME280;11511;51.514;7.080;2023-08-20T19:20:05;101672.72;;;21.15;100.00
22688;BME280;11511;51.514;7.080;2023-08-20T19:22:33;101669.38;;;21.11;100.00
22688;BME280;11511;51.514;7.080;2023-08-20T19:25:05;101673.59;;;21.01;100.00
22688;BME280;11511;51.514;7.080;2023-08-20T19:27:30;101670.81;;;20.88;100.00
22688;BME280;11511;51.514;7.080;2023-08-20T19:29:57;101675.78;;;20.80;100.00
22688;BME280;11511;51.514;7.080;2023-08-20T19:32:23;101680.19;;;20.67;100.00
22688;BME280;11511;51.514;7.080;2023-08-20T19:34:50;101687.84;;;20.59;100.00
22688;BME280;11511;51.514;7.080;2023-08-20T19:37:15;101681.25;;;20.50;100.00
22688;BME280;11511;51.514;7.080;2023-08-20T19:40:04;101682.56;;;20.43;100.00
22688;BME280;11511;51.514;7.080;2023-08-20T19:43:04;101685.09;;;20.31;100.00
22688;BME280;11511;51.514;7.080;2023-08-20T19:45:30;101686.31;;;20.25;100.00
22688;BME280;11511;51.514;7.080;2023-08-20T19:47:56;101684.19;;;20.16;100.00
22688;BME280;11511;51.514;7.080;2023-08-20T19:50:34;101693.44;;;20.10;100.00
22688;BME280;11511;51.514;7.080;2023-08-20T19:53:00;101694.75;;;20.03;100.00
22688;BME280;11511;51.514;7.080;2023-08-20T19:55:25;101695.97;;;19.98;100.00
22688;BME280;11511;51.514;7.080;2023-08-20T19:58:05;101701.78;;;19.90;100.00
22688;BME280;11511;51.514;7.080;2023-08-20T20:00:32;101706.88;;;19.79;100.00
22688;BME280;11511;51.514;7.080;2023-08-20T20:03:19;101701.09;;;19.71;100.00
22688;BME280;11511;51.514;7.080;2023-08-20T20:05:44;101703.88;;;19.69;100.00
22688;BME280;11511;51.514;7.080;2023-08-20T20:08:36;101708.03;;;19.59;100.00
22688;BME280;11511;51.514;7.080;2023-08-20T20:11:01;101711.97;;;19.52;100.00
22688;BME280;11511;51.514;7.080;2023-08-20T20:13:27;101715.81;;;19.46;100.00
22688;BME280;11511;51.514;7.080;2023-08-20T20:15:52;101718.09;;;19.38;100.00
22688;BME280;11511;51.514;7.080;2023-08-20T20:18:18;101723.75;;;19.32;100.00
22688;BME280;11511;51.514;7.080;2023-08-20T20:20:43;101725.03;;;19.25;100.00
22688;BME280;11511;51.514;7.080;2023-08-20T20:23:14;101731.56;;;19.19;100.00
22688;BME280;11511;51.514;7.080;2023-08-20T20:25:40;101728.47;;;19.11;100.00
22688;BME280;11511;51.514;7.080;2023-08-20T20:28:05;101724.25;;;19.07;100.00
22688;BME280;11511;51.514;7.080;2023-08-20T20:30:31;101727.47;;;18.97;100.00
22688;BME280;11511;51.514;7.080;2023-08-20T20:32:57;101739.09;;;18.96;100.00
22688;BME280;11511;51.514;7.080;2023-08-20T20:35:23;101740.66;;;18.84;100.00
22688;BME280;11511;51.514;7.080;2023-08-20T20:37:49;101745.13;;;18.83;100.00
22688;BME280;11511;51.514;7.080;2023-08-20T20:40:15;101743.63;;;18.78;100.00
22688;BME280;11511;51.514;7.080;2023-08-20T20:42:42;101737.66;;;18.73;100.00
22688;BME280;11511;51.514;7.080;2023-08-20T20:45:07;101733.66;;;18.64;100.00
22688;BME280;11511;51.514;7.080;2023-08-20T20:47:34;101733.03;;;18.59;100.00
22688;BME280;11511;51.514;7.080;2023-08-20T20:50:03;101744.25;;;18.66;100.00
22688;BME280;11511;51.514;7.080;2023-08-20T20:52:28;101747.78;;;18.66;100.00
22688;BME280;11511;51.514;7.080;2023-08-20T20:54:54;101753.28;;;18.63;100.00
22688;BME280;11511;51.514;7.080;2023-08-20T20:57:19;101761.59;;;18.57;100.00
22688;BME280;11511;51.514;7.080;2023-08-20T20:59:45;101765.50;;;18.50;100.00
22688;BME280;11511;51.514;7.080;2023-08-20T21:02:10;101758.53;;;18.47;100.00
22688;BME280;11511;51.514;7.080;2023-08-20T21:04:35;101760.72;;;18.39;100.00
22688;BME280;11511;51.514;7.080;2023-08-20T21:10:15;101765.81;;;18.26;100.00
22688;BME280;11511;51.514;7.080;2023-08-20T21:12:41;101772.31;;;18.21;100.00
22688;BME280;11511;51.514;7.080;2023-08-20T21:15:06;101785.16;;;18.13;100.00
22688;BME280;11511;51.514;7.080;2023-08-20T21:17:34;101787.19;;;18.08;100.00
22688;BME280;11511;51.514;7.080;2023-08-20T21:20:01;101792.69;;;18.05;100.00
22688;BME280;11511;51.514;7.080;2023-08-20T21:22:27;101796.66;;;17.96;100.00
22688;BME280;11511;51.514;7.080;2023-08-20T21:24:53;101803.94;;;17.92;100.00
22688;BME280;11511;51.514;7.080;2023-08-20T21:27:18;101799.69;;;17.88;100.00
22688;BME280;11511;51.514;7.080;2023-08-20T21:29:44;101805.16;;;17.85;100.00
22688;BME280;11511;51.514;7.080;2023-08-20T21:32:09;101804.59;;;17.79;100.00
22688;BME280;11511;51.514;7.080;2023-08-20T21:34:34;101800.28;;;17.76;100.00
22688;BME280;11511;51.514;7.080;2023-08-20T21:37:18;101806.69;;;17.72;100.00
22688;BME280;11511;51.514;7.080;2023-08-20T21:39:55;101806.91;;;17.68;100.00
22688;BME280;11511;51.514;7.080;2023-08-20T21:42:20;101810.69;;;17.62;100.00
22688;BME280;11511;51.514;7.080;2023-08-20T21:44:46;101809.03;;;17.59;100.00
22688;BME280;11511;51.514;7.080;2023-08-20T21:47:25;101815.56;;;17.52;100.00
22688;BME280;11511;51.514;7.080;2023-08-20T21:49:51;101807.50;;;17.54;100.00
22688;BME280;11511;51.514;7.080;2023-08-20T21:52:16;101807.44;;;17.55;100.00
22688;BME280;11511;51.514;7.080;2023-08-20T21:54:44;101809.25;;;17.55;100.00
22688;BME280;11511;51.514;7.080;2023-08-20T21:57:15;101807.66;;;17.51;100.00
22688;BME280;11511;51.514;7.080;2023-08-20T21:59:40;101820.28;;;17.47;100.00
22688;BME280;11511;51.514;7.080;2023-08-20T22:02:06;101815.16;;;17.43;100.00
22688;BME280;11511;51.514;7.080;2023-08-20T22:04:31;101816.28;;;17.37;100.00
22688;BME280;11511;51.514;7.080;2023-08-20T22:06:57;101818.16;;;17.35;100.00
22688;BME280;11511;51.514;7.080;2023-08-20T22:09:22;101826.34;;;17.31;100.00
22688;BME280;11511;51.514;7.080;2023-08-20T22:11:49;101826.41;;;17.29;100.00
22688;BME280;11511;51.514;7.080;2023-08-20T22:14:15;101822.97;;;17.27;100.00
22688;BME280;11511;51.514;7.080;2023-08-20T22:16:40;101817.75;;;17.24;100.00
22688;BME280;11511;51.514;7.080;2023-08-20T22:19:06;101817.75;;;17.24;100.00
22688;BME280;11511;51.514;7.080;2023-08-20T22:22:05;101822.03;;;17.28;100.00
22688;BME280;11511;51.514;7.080;2023-08-20T22:24:31;101826.47;;;17.27;100.00
22688;BME280;11511;51.514;7.080;2023-08-20T22:26:56;101828.28;;;17.27;100.00
22688;BME280;11511;51.514;7.080;2023-08-20T22:29:21;101815.97;;;17.24;100.00
22688;BME280;11511;51.514;7.080;2023-08-20T22:31:47;101816.91;;;17.23;100.00
22688;BME280;11511;51.514;7.080;2023-08-20T22:34:12;101823.25;;;17.21;100.00
22688;BME280;11511;51.514;7.080;2023-08-20T22:37:00;101817.19;;;17.17;100.00
22688;BME280;11511;51.514;7.080;2023-08-20T22:39:26;101828.97;;;17.12;100.00
22688;BME280;11511;51.514;7.080;2023-08-20T22:41:51;101825.66;;;17.07;100.00
22688;BME280;11511;51.514;7.080;2023-08-20T22:44:16;101824.97;;;17.02;100.00
22688;BME280;11511;51.514;7.080;2023-08-20T22:46:42;101822.53;;;16.97;100.00
22688;BME280;11511;51.514;7.080;2023-08-20T22:49:07;101818.13;;;16.96;100.00
22688;BME280;11511;51.514;7.080;2023-08-20T22:51:32;101821.81;;;16.94;100.00
22688;BME280;11511;51.514;7.080;2023-08-20T22:53:58;101820.09;;;16.92;100.00
22688;BME280;11511;51.514;7.080;2023-08-20T22:56:23;101819.28;;;16.90;100.00
22688;BME280;11511;51.514;7.080;2023-08-20T22:58:49;101815.81;;;16.88;100.00
22688;BME280;11511;51.514;7.080;2023-08-20T23:01:14;101809.63;;;16.88;100.00
22688;BME280;11511;51.514;7.080;2023-08-20T23:03:39;101811.25;;;16.92;100.00
22688;BME280;11511;51.514;7.080;2023-08-20T23:06:05;101807.66;;;16.93;100.00
22688;BME280;11511;51.514;7.080;2023-08-20T23:08:30;101802.25;;;16.95;100.00
22688;BME280;11511;51.514;7.080;2023-08-20T23:10:55;101806.03;;;16.89;100.00
22688;BME280;11511;51.514;7.080;2023-08-20T23:13:32;101804.38;;;16.86;100.00
22688;BME280;11511;51.514;7.080;2023-08-20T23:15:57;101804.44;;;16.85;100.00
22688;BME280;11511;51.514;7.080;2023-08-20T23:18:22;101805.13;;;16.90;100.00
22688;BME280;11511;51.514;7.080;2023-08-20T23:20:59;101804.31;;;16.88;100.00
22688;BME280;11511;51.514;7.080;2023-08-20T23:23:25;101806.25;;;16.84;100.00
22688;BME280;11511;51.514;7.080;2023-08-20T23:25:50;101802.72;;;16.84;100.00
22688;BME280;11511;51.514;7.080;2023-08-20T23:28:33;101806.38;;;16.81;100.00
22688;BME280;11511;51.514;7.080;2023-08-20T23:30:58;101811.88;;;16.77;100.00
22688;BME280;11511;51.514;7.080;2023-08-20T23:33:23;101812.81;;;16.76;100.00
22688;BME280;11511;51.514;7.080;2023-08-20T23:35:49;101820.19;;;16.69;100.00
22688;BME280;11511;51.514;7.080;2023-08-20T23:38:14;101822.22;;;16.64;100.00
22688;BME280;11511;51.514;7.080;2023-08-20T23:40:40;101828.44;;;16.63;100.00
22688;BME280;11511;51.514;7.080;2023-08-20T23:43:05;101820.44;;;16.63;100.00
22688;BME280;11511;51.514;7.080;2023-08-20T23:45:41;101824.00;;;16.64;100.00
22688;BME280;11511;51.514;7.080;2023-08-20T23:48:06;101812.44;;;16.65;100.00
22688;BME280;11511;51.514;7.080;2023-08-20T23:50:32;101811.56;;;16.64;100.00
22688;BME280;11511;51.514;7.080;2023-08-20T23:52:57;101807.06;;;16.66;100.00
22688;BME280;11511;51.514;7.080;2023-08-20T23:55:22;101803.34;;;16.69;100.00
22688;BME280;11511;51.514;7.080;2023-08-20T23:57:48;101796.25;;;16.69;100.00
